createdAt,value
2018-06-15T00:00:37.778Z,82.00
2018-06-15T00:03:07.837Z,82.00
2018-06-15T00:05:37.564Z,82.00
2018-06-15T00:10:39.129Z,82.90
2018-06-15T00:13:09.768Z,83.00
2018-06-15T00:15:40.696Z,83.90
2018-06-15T00:18:10.676Z,84.30
2018-06-15T00:20:41.077Z,84.90
2018-06-15T00:23:11.188Z,85.30
2018-06-15T00:25:42.061Z,84.60
2018-06-15T00:28:14.213Z,84.30
2018-06-15T00:30:45.065Z,84.90
2018-06-15T00:33:14.621Z,84.60
2018-06-15T00:35:43.516Z,84.80
2018-06-15T00:38:13.898Z,84.90
2018-06-15T00:40:44.266Z,84.90
2018-06-15T00:43:17.415Z,85.20
2018-06-15T00:45:47.877Z,85.20
2018-06-15T00:48:18.829Z,85.30
2018-06-15T00:50:49.645Z,85.70
2018-06-15T00:53:21.074Z,85.80
2018-06-15T00:55:52.160Z,85.90
2018-06-15T00:58:22.267Z,85.70
2018-06-15T01:00:54.285Z,85.60
2018-06-15T01:03:24.854Z,85.50
2018-06-15T01:05:55.183Z,85.50
2018-06-15T01:08:26.685Z,85.10
2018-06-15T01:10:58.837Z,84.90
2018-06-15T01:13:28.776Z,85.10
2018-06-15T01:16:01.088Z,84.70
2018-06-15T01:18:32.790Z,85.00
2018-06-15T01:21:02.653Z,84.70
2018-06-15T01:23:33.605Z,84.70
2018-06-15T01:26:05.102Z,84.70
2018-06-15T01:28:35.686Z,85.00
2018-06-15T01:31:07.299Z,85.40
2018-06-15T01:33:39.801Z,85.70
2018-06-15T01:36:11.557Z,85.90
2018-06-15T01:38:42.575Z,86.10
2018-06-15T01:41:14.812Z,86.40
2018-06-15T01:43:47.982Z,86.40
2018-06-15T01:46:19.268Z,87.20
2018-06-15T01:48:49.896Z,87.00
2018-06-15T01:51:19.928Z,87.10
2018-06-15T01:56:21.571Z,87.90
2018-06-15T01:58:52.363Z,88.80
2018-06-15T02:01:23.800Z,88.20
2018-06-15T02:03:53.701Z,88.70
2018-06-15T02:06:25.819Z,88.50
2018-06-15T02:08:56.297Z,88.40
2018-06-15T02:11:28.666Z,88.60
2018-06-15T02:13:59.703Z,88.80
2018-06-15T02:16:29.533Z,89.00
2018-06-15T02:18:59.849Z,88.60
2018-06-15T02:21:29.210Z,88.70
2018-06-15T02:23:58.880Z,89.00
2018-06-15T02:26:29.428Z,89.20
2018-06-15T02:29:00.875Z,88.80
2018-06-15T02:31:30.897Z,89.00
2018-06-15T02:34:01.435Z,90.50
2018-06-15T02:36:32.672Z,91.00
2018-06-15T02:39:03.050Z,91.10
2018-06-15T02:41:34.751Z,90.50
2018-06-15T02:44:04.788Z,90.20
2018-06-15T02:46:36.167Z,90.10
2018-06-15T02:49:07.544Z,90.10
2018-06-15T02:51:37.551Z,90.10
2018-06-15T02:54:07.987Z,90.00
2018-06-15T02:56:37.847Z,90.40
2018-06-15T02:59:08.274Z,90.80
2018-06-15T03:01:37.810Z,91.10
2018-06-15T03:04:07.388Z,91.10
2018-06-15T03:06:37.202Z,90.10
2018-06-15T03:09:07.208Z,90.00
2018-06-15T03:11:37.529Z,90.00
2018-06-15T03:14:07.015Z,90.00
2018-06-15T03:16:36.249Z,89.90
2018-06-15T03:19:06.280Z,90.00
2018-06-15T03:21:40.366Z,89.80
2018-06-15T03:24:10.462Z,90.10
2018-06-15T03:26:44.665Z,90.10
2018-06-15T03:29:15.761Z,90.20
2018-06-15T03:31:45.663Z,91.30
2018-06-15T03:34:18.541Z,91.80
2018-06-15T03:36:48.593Z,91.30
2018-06-15T03:39:18.570Z,90.80
2018-06-15T03:41:51.105Z,91.10
2018-06-15T03:44:24.021Z,90.60
2018-06-15T03:46:57.347Z,90.50
2018-06-15T03:49:27.162Z,90.30
2018-06-15T03:51:57.227Z,90.10
2018-06-15T03:54:27.822Z,90.10
2018-06-15T03:57:01.406Z,90.30
2018-06-15T03:59:32.612Z,90.60
2018-06-15T04:02:03.663Z,90.70
2018-06-15T04:04:35.851Z,91.10
2018-06-15T04:07:05.677Z,91.30
2018-06-15T04:09:34.994Z,90.70
2018-06-15T04:12:04.341Z,90.40
2018-06-15T04:14:33.413Z,90.30
2018-06-15T04:17:02.469Z,90.10
2018-06-15T04:19:32.776Z,90.50
2018-06-15T04:22:01.874Z,90.40
2018-06-15T04:24:31.356Z,90.30
2018-06-15T04:27:00.683Z,90.30
2018-06-15T04:29:30.799Z,91.10
2018-06-15T04:32:00.874Z,91.40
2018-06-15T04:34:29.742Z,91.20
2018-06-15T04:36:59.187Z,90.70
2018-06-15T04:39:28.987Z,90.50
2018-06-15T04:41:59.208Z,90.40
2018-06-15T04:44:28.717Z,90.40
2018-06-15T04:46:58.542Z,90.20
2018-06-15T04:49:28.672Z,90.10
2018-06-15T04:51:59.281Z,89.90
2018-06-15T04:54:28.814Z,90.00
2018-06-15T04:56:58.819Z,90.00
2018-06-15T04:59:28.850Z,90.00
2018-06-15T05:01:57.701Z,90.20
2018-06-15T05:04:27.876Z,90.40
2018-06-15T05:06:56.690Z,90.00
2018-06-15T05:09:26.424Z,90.00
2018-06-15T05:11:55.474Z,89.70
2018-06-15T05:14:24.559Z,89.60
2018-06-15T05:16:53.831Z,90.10
2018-06-15T05:19:23.937Z,90.00
2018-06-15T05:21:54.060Z,89.60
2018-06-15T05:24:23.302Z,89.60
2018-06-15T05:26:52.425Z,89.40
2018-06-15T05:29:22.360Z,89.60
2018-06-15T05:31:51.582Z,90.30
2018-06-15T05:34:20.585Z,89.90
2018-06-15T05:36:50.516Z,90.30
2018-06-15T05:39:19.683Z,89.90
2018-06-15T05:41:48.971Z,89.90
2018-06-15T05:44:18.015Z,90.00
2018-06-15T05:46:47.488Z,90.10
2018-06-15T05:49:16.595Z,89.60
2018-06-15T05:51:46.173Z,89.70
2018-06-15T05:54:14.966Z,89.50
2018-06-15T05:56:43.983Z,89.60
2018-06-15T05:59:14.011Z,89.40
2018-06-15T06:01:43.997Z,89.40
2018-06-15T06:04:13.802Z,89.60
2018-06-15T06:06:43.249Z,89.00
2018-06-15T06:09:12.573Z,88.60
2018-06-15T06:11:42.112Z,88.60
2018-06-15T06:14:12.007Z,88.10
2018-06-15T06:16:41.170Z,86.90
2018-06-15T06:19:10.609Z,85.20
2018-06-15T06:21:39.849Z,86.00
2018-06-15T06:24:09.659Z,86.00
2018-06-15T06:26:39.385Z,84.50
2018-06-15T06:29:08.308Z,83.70
2018-06-15T06:31:37.547Z,83.10
2018-06-15T06:34:07.214Z,81.70
2018-06-15T06:36:37.173Z,80.90
2018-06-15T06:39:08.387Z,81.00
2018-06-15T06:41:37.680Z,81.20
2018-06-15T06:44:07.581Z,81.30
2018-06-15T06:46:37.693Z,81.70
2018-06-15T06:49:07.314Z,81.20
2018-06-15T06:51:36.363Z,80.60
2018-06-15T06:54:06.355Z,77.00
2018-06-15T06:56:35.870Z,78.70
2018-06-15T06:59:05.083Z,78.90
2018-06-15T07:01:35.607Z,77.50
2018-06-15T07:04:04.476Z,75.90
2018-06-15T07:06:33.482Z,76.20
2018-06-15T07:09:02.991Z,69.80
2018-06-15T07:11:32.724Z,70.80
2018-06-15T07:14:02.339Z,67.60
2018-06-15T07:16:31.621Z,69.40
2018-06-15T07:19:00.698Z,67.60
2018-06-15T07:21:30.057Z,66.50
2018-06-15T07:23:59.435Z,64.10
2018-06-15T07:26:28.203Z,66.00
2018-06-15T07:28:57.321Z,63.20
2018-06-15T07:31:26.311Z,62.70
2018-06-15T07:33:55.294Z,61.70
2018-06-15T07:36:24.144Z,64.20
2018-06-15T07:38:53.158Z,62.30
2018-06-15T07:41:23.067Z,61.80
2018-06-15T07:43:52.863Z,59.70
2018-06-15T07:46:21.795Z,61.40
2018-06-15T07:48:51.846Z,61.50
2018-06-15T07:51:21.382Z,63.00
2018-06-15T07:53:51.528Z,60.20
2018-06-15T07:56:21.110Z,59.30
2018-06-15T07:58:50.552Z,61.00
2018-06-15T08:01:19.565Z,58.80
2018-06-15T08:03:54.025Z,60.10
2018-06-15T08:06:23.910Z,61.80
2018-06-15T08:08:53.245Z,59.50
2018-06-15T08:11:22.054Z,59.20
2018-06-15T08:13:51.713Z,55.20
2018-06-15T08:16:21.259Z,52.70
2018-06-15T08:18:50.126Z,52.00
2018-06-15T08:21:19.195Z,50.80
2018-06-15T08:23:48.671Z,45.50
2018-06-15T08:26:19.361Z,44.70
2018-06-15T08:28:49.231Z,42.50
2018-06-15T08:31:18.471Z,42.80
2018-06-15T08:33:47.823Z,41.10
2018-06-15T08:36:17.028Z,40.60
2018-06-15T08:38:46.038Z,39.70
2018-06-15T08:41:14.843Z,35.40
2018-06-15T08:43:44.988Z,37.30
2018-06-15T08:46:14.138Z,37.50
2018-06-15T08:48:44.077Z,35.20
2018-06-15T08:51:13.173Z,36.30
2018-06-15T08:53:42.321Z,35.30
2018-06-15T08:56:11.185Z,33.10
2018-06-15T08:58:41.001Z,30.90
2018-06-15T09:01:10.601Z,32.00
2018-06-15T09:03:41.184Z,31.30
2018-06-15T09:06:11.255Z,29.30
2018-06-15T09:08:40.864Z,33.00
2018-06-15T09:11:10.129Z,31.50
2018-06-15T09:13:39.912Z,30.70
2018-06-15T09:16:09.860Z,32.10
2018-06-15T09:18:38.729Z,33.10
2018-06-15T09:21:08.293Z,28.20
2018-06-15T09:23:38.588Z,30.60
2018-06-15T09:26:08.109Z,30.80
2018-06-15T09:28:37.236Z,27.70
2018-06-15T09:31:06.203Z,29.00
2018-06-15T09:33:35.471Z,28.30
2018-06-15T09:36:04.761Z,30.20
2018-06-15T09:38:34.069Z,30.30
2018-06-15T09:43:32.191Z,29.80
2018-06-15T09:46:02.525Z,29.60
2018-06-15T09:48:31.928Z,30.40
2018-06-15T09:51:01.321Z,29.60
2018-06-15T09:53:30.823Z,29.40
2018-06-15T09:56:00.358Z,29.60
2018-06-15T09:58:29.641Z,28.60
2018-06-15T10:01:04.210Z,30.50
2018-06-15T10:03:33.145Z,30.00
2018-06-15T10:06:02.509Z,30.40
2018-06-15T10:08:32.322Z,30.30
2018-06-15T10:11:02.265Z,30.70
2018-06-15T10:13:32.087Z,30.60
2018-06-15T10:16:01.090Z,29.00
2018-06-15T10:18:30.827Z,30.90
2018-06-15T10:21:00.067Z,30.30
2018-06-15T10:23:29.021Z,29.60
2018-06-15T10:25:58.986Z,30.30
2018-06-15T10:28:29.005Z,28.50
2018-06-15T10:30:58.826Z,28.50
2018-06-15T10:33:28.553Z,29.40
2018-06-15T10:35:58.365Z,31.20
2018-06-15T10:38:27.844Z,29.00
2018-06-15T10:40:58.085Z,30.80
2018-06-15T10:43:27.972Z,32.60
2018-06-15T10:45:57.702Z,32.50
2018-06-15T10:48:26.443Z,32.70
2018-06-15T10:50:55.673Z,30.80
2018-06-15T10:53:24.939Z,31.90
2018-06-15T10:55:53.884Z,33.40
2018-06-15T10:58:23.170Z,34.20
2018-06-15T11:00:52.211Z,34.70
2018-06-15T11:03:23.074Z,34.00
2018-06-15T11:05:52.317Z,33.30
2018-06-15T11:08:21.896Z,34.20
2018-06-15T11:10:51.467Z,32.70
2018-06-15T11:13:21.103Z,35.50
2018-06-15T11:15:50.064Z,37.80
2018-06-15T11:18:19.012Z,34.00
2018-06-15T11:20:48.958Z,33.80
2018-06-15T11:23:18.854Z,35.10
2018-06-15T11:25:48.330Z,33.80
2018-06-15T11:28:18.049Z,34.10
2018-06-15T11:30:48.255Z,36.70
2018-06-15T11:33:17.698Z,38.80
2018-06-15T11:35:47.592Z,37.00
2018-06-15T11:38:16.791Z,37.00
2018-06-15T11:40:45.881Z,37.40
2018-06-15T11:43:15.521Z,36.40
2018-06-15T11:45:44.508Z,35.40
2018-06-15T11:48:15.169Z,32.80
2018-06-15T11:50:44.061Z,36.00
2018-06-15T11:53:13.411Z,33.40
2018-06-15T11:55:42.172Z,35.30
2018-06-15T11:58:11.228Z,32.70
2018-06-15T12:00:40.400Z,32.20
2018-06-15T12:03:09.650Z,33.50
2018-06-15T12:05:39.387Z,32.20
2018-06-15T12:08:08.542Z,34.30
2018-06-15T12:10:38.595Z,33.60
2018-06-15T12:13:07.819Z,34.70
2018-06-15T12:15:37.674Z,34.80
2018-06-15T12:18:06.743Z,33.80
2018-06-15T12:20:35.961Z,37.00
2018-06-15T12:23:08.946Z,34.20
2018-06-15T12:25:38.783Z,34.80
2018-06-15T12:28:08.319Z,33.30
2018-06-15T12:30:37.849Z,34.60
2018-06-15T12:33:07.351Z,33.00
2018-06-15T12:35:39.454Z,32.40
2018-06-15T12:38:10.237Z,33.20
2018-06-15T12:40:41.279Z,31.90
2018-06-15T12:43:14.944Z,32.60
2018-06-15T12:45:43.888Z,32.60
2018-06-15T12:50:42.488Z,31.20
2018-06-15T12:53:13.841Z,31.20
2018-06-15T12:55:46.226Z,29.90
2018-06-15T12:58:15.390Z,30.90
2018-06-15T13:00:44.407Z,31.10
2018-06-15T13:03:15.837Z,29.50
2018-06-15T13:05:45.661Z,31.90
2018-06-15T13:08:15.961Z,30.30
2018-06-15T13:10:45.489Z,29.70
2018-06-15T13:13:14.483Z,31.30
2018-06-15T13:15:43.601Z,29.70
2018-06-15T13:18:12.638Z,29.80
2018-06-15T13:20:42.252Z,30.70
2018-06-15T13:23:11.474Z,30.50
2018-06-15T13:25:40.908Z,27.20
2018-06-15T13:28:09.976Z,29.00
2018-06-15T13:30:38.999Z,28.60
2018-06-15T13:33:09.217Z,29.00
2018-06-15T13:35:40.060Z,30.80
2018-06-15T13:38:09.534Z,29.50
2018-06-15T13:40:38.898Z,29.30
2018-06-15T13:43:08.241Z,27.20
2018-06-15T13:45:39.346Z,27.50
2018-06-15T13:48:09.273Z,28.80
2018-06-15T13:50:38.878Z,30.10
2018-06-15T13:53:08.192Z,27.60
2018-06-15T13:55:37.340Z,26.00
2018-06-15T13:58:06.711Z,27.10
2018-06-15T14:00:36.633Z,27.50
2018-06-15T14:03:06.074Z,28.30
2018-06-15T14:05:35.980Z,27.00
2018-06-15T14:08:06.169Z,28.00
2018-06-15T14:10:37.163Z,26.10
2018-06-15T14:13:06.450Z,27.90
2018-06-15T14:15:35.521Z,26.30
2018-06-15T14:18:05.182Z,27.50
2018-06-15T14:20:34.406Z,27.50
2018-06-15T14:23:04.630Z,27.90
2018-06-15T14:25:34.390Z,26.80
2018-06-15T14:28:03.611Z,26.80
2018-06-15T14:30:34.172Z,25.50
2018-06-15T14:33:03.534Z,26.00
2018-06-15T14:35:34.012Z,25.30
2018-06-15T14:38:04.089Z,25.00
2018-06-15T14:40:35.408Z,25.40
2018-06-15T14:43:04.911Z,25.20
2018-06-15T14:45:34.855Z,25.10
2018-06-15T14:48:04.717Z,25.80
2018-06-15T14:50:33.786Z,24.10
2018-06-15T14:53:03.000Z,26.60
2018-06-15T14:55:33.042Z,26.40
2018-06-15T14:58:02.325Z,26.70
2018-06-15T15:00:32.835Z,27.00
2018-06-15T15:03:02.248Z,28.60
2018-06-15T15:05:31.401Z,28.60
2018-06-15T15:08:00.384Z,29.50
2018-06-15T15:10:29.855Z,30.00
2018-06-15T15:13:00.182Z,29.40
2018-06-15T15:15:33.007Z,29.80
2018-06-15T15:18:04.767Z,31.40
2018-06-15T15:20:35.154Z,32.30
2018-06-15T15:25:42.519Z,34.90
2018-06-15T15:28:12.834Z,33.90
2018-06-15T15:30:42.509Z,36.00
2018-06-15T15:33:11.513Z,34.90
2018-06-15T15:35:40.733Z,35.80
2018-06-15T15:38:09.726Z,36.80
2018-06-15T15:40:39.257Z,36.30
2018-06-15T15:43:11.062Z,37.50
2018-06-15T15:45:46.081Z,37.60
2018-06-15T15:48:20.091Z,36.60
2018-06-15T15:50:49.100Z,36.10
2018-06-15T15:53:18.831Z,36.90
2018-06-15T15:55:48.279Z,37.50
2018-06-15T15:58:18.817Z,36.50
2018-06-15T16:00:54.396Z,37.20
2018-06-15T16:03:24.425Z,38.20
2018-06-15T16:05:53.578Z,38.50
2018-06-15T16:08:22.660Z,39.80
2018-06-15T16:10:52.567Z,38.40
2018-06-15T16:13:22.316Z,38.60
2018-06-15T16:15:51.367Z,40.30
2018-06-15T16:18:20.954Z,39.20
2018-06-15T16:20:50.571Z,38.90
2018-06-15T16:23:19.400Z,40.50
2018-06-15T16:25:49.891Z,40.20
2018-06-15T16:28:19.353Z,39.70
2018-06-15T16:30:48.535Z,40.90
2018-06-15T16:33:18.120Z,41.90
2018-06-15T16:35:47.068Z,41.30
2018-06-15T16:38:16.187Z,41.50
2018-06-15T16:40:46.445Z,41.50
2018-06-15T16:43:15.364Z,41.80
2018-06-15T16:45:44.271Z,42.20
2018-06-15T16:48:13.176Z,41.80
2018-06-15T16:50:42.300Z,41.50
2018-06-15T16:53:11.461Z,41.50
2018-06-15T16:55:40.479Z,41.30
2018-06-15T16:58:09.630Z,41.80
2018-06-15T17:00:39.444Z,41.30
2018-06-15T17:03:09.985Z,41.50
2018-06-15T17:05:38.973Z,42.60
2018-06-15T17:08:08.627Z,43.00
2018-06-15T17:10:38.281Z,43.10
2018-06-15T17:13:07.667Z,43.50
2018-06-15T17:15:37.785Z,43.40
2018-06-15T17:18:07.438Z,43.90
2018-06-15T17:20:37.662Z,44.10
2018-06-15T17:23:12.015Z,44.00
2018-06-15T17:25:44.045Z,43.30
2018-06-15T17:28:14.757Z,44.00
2018-06-15T17:30:47.926Z,43.40
2018-06-15T17:33:16.869Z,43.90
2018-06-15T17:35:46.023Z,44.60
2018-06-15T17:38:18.474Z,44.00
2018-06-15T17:40:49.145Z,44.50
2018-06-15T17:43:18.782Z,44.30
2018-06-15T17:45:48.670Z,44.60
2018-06-15T17:48:17.842Z,44.40
2018-06-15T17:50:48.913Z,44.60
2018-06-15T17:53:20.731Z,45.00
2018-06-15T17:55:50.419Z,45.50
2018-06-15T17:58:20.187Z,45.60
2018-06-15T18:00:50.819Z,45.70
2018-06-15T18:03:20.623Z,45.70
2018-06-15T18:05:50.781Z,45.90
2018-06-15T18:08:20.249Z,46.00
2018-06-15T18:10:49.971Z,46.00
2018-06-15T18:13:19.528Z,46.00
2018-06-15T18:15:49.625Z,46.30
2018-06-15T18:18:18.739Z,46.70
2018-06-15T18:20:47.860Z,47.30
2018-06-15T18:23:17.285Z,48.00
2018-06-15T18:25:46.088Z,47.40
2018-06-15T18:28:17.634Z,47.80
2018-06-15T18:30:47.858Z,48.10
2018-06-15T18:33:17.595Z,47.80
2018-06-15T18:35:46.812Z,48.50
2018-06-15T18:38:15.630Z,48.70
2018-06-15T18:40:45.035Z,49.00
2018-06-15T18:43:14.336Z,48.30
2018-06-15T18:45:43.090Z,48.70
2018-06-15T18:48:12.653Z,49.40
2018-06-15T18:50:41.735Z,50.10
2018-06-15T18:53:10.950Z,50.20
2018-06-15T18:55:40.292Z,50.00
2018-06-15T18:58:09.492Z,50.10
2018-06-15T19:00:39.581Z,50.20
2018-06-15T19:03:08.723Z,50.80
2018-06-15T19:05:38.028Z,50.30
2018-06-15T19:08:07.432Z,51.00
2018-06-15T19:10:37.563Z,51.30
2018-06-15T19:13:06.736Z,50.70
2018-06-15T19:18:05.533Z,51.40
2018-06-15T19:20:35.060Z,51.10
2018-06-15T19:23:04.188Z,51.60
2018-06-15T19:25:33.300Z,51.60
2018-06-15T19:28:02.581Z,51.60
2018-06-15T19:30:31.516Z,53.20
2018-06-15T19:35:29.151Z,54.30
2018-06-15T19:37:58.044Z,53.30
2018-06-15T19:40:27.038Z,52.60
2018-06-15T19:42:56.138Z,53.20
2018-06-15T19:45:26.201Z,53.60
2018-06-15T19:47:56.003Z,54.00
2018-06-15T19:50:25.735Z,54.00
2018-06-15T19:52:54.941Z,54.40
2018-06-15T19:55:24.081Z,54.90
2018-06-15T19:57:53.336Z,54.30
2018-06-15T20:00:22.834Z,54.90
2018-06-15T20:05:22.055Z,55.80
2018-06-15T20:07:50.824Z,56.60
2018-06-15T20:10:19.476Z,56.30
2018-06-15T20:12:48.326Z,56.80
2018-06-15T20:15:17.323Z,56.50
2018-06-15T20:17:46.978Z,57.10
2018-06-15T20:20:16.809Z,56.70
2018-06-15T20:22:45.686Z,57.40
2018-06-15T20:25:14.831Z,57.80
2018-06-15T20:27:44.555Z,58.20
2018-06-15T20:30:14.622Z,58.10
2018-06-15T20:32:43.335Z,58.80
2018-06-15T20:35:12.238Z,58.30
2018-06-15T20:37:41.749Z,58.90
2018-06-15T20:40:11.289Z,59.80
2018-06-15T20:42:40.453Z,59.40
2018-06-15T20:45:09.517Z,60.80
2018-06-15T20:47:40.295Z,62.20
2018-06-15T20:50:10.526Z,61.50
2018-06-15T20:52:40.467Z,61.10
2018-06-15T20:55:10.981Z,61.20
2018-06-15T20:57:40.970Z,61.30
2018-06-15T21:00:10.129Z,61.50
2018-06-15T21:02:39.502Z,61.80
2018-06-15T21:05:09.479Z,62.20
2018-06-15T21:07:39.908Z,62.30
2018-06-15T21:10:08.791Z,62.80
2018-06-15T21:12:37.461Z,64.40
2018-06-15T21:15:07.992Z,63.10
2018-06-15T21:17:36.827Z,63.10
2018-06-15T21:20:05.799Z,63.40
2018-06-15T21:22:35.899Z,64.00
2018-06-15T21:25:05.022Z,63.90
2018-06-15T21:27:33.875Z,64.00
2018-06-15T21:30:04.819Z,64.50
2018-06-15T21:32:34.330Z,64.80
2018-06-15T21:35:04.197Z,64.70
2018-06-15T21:37:33.281Z,64.80
2018-06-15T21:40:02.035Z,65.70
2018-06-15T21:42:31.152Z,65.10
2018-06-15T21:45:00.298Z,65.60
2018-06-15T21:49:58.709Z,66.30
2018-06-15T21:52:27.467Z,66.50
2018-06-15T21:57:25.470Z,67.30
2018-06-15T21:59:54.961Z,66.90
2018-06-15T22:02:24.407Z,67.50
2018-06-15T22:04:53.637Z,68.10
2018-06-15T22:07:22.698Z,68.50
2018-06-15T22:09:51.608Z,68.00
2018-06-15T22:12:21.116Z,68.00
2018-06-15T22:14:50.260Z,67.90
2018-06-15T22:17:19.673Z,68.40
2018-06-15T22:19:50.624Z,67.80
2018-06-15T22:22:20.745Z,68.90
2018-06-15T22:24:49.930Z,69.00
2018-06-15T22:27:19.354Z,68.50
2018-06-15T22:29:48.772Z,68.60
2018-06-15T22:32:18.280Z,70.40
2018-06-15T22:34:47.341Z,69.80
2018-06-15T22:37:26.819Z,69.90
2018-06-15T22:39:55.624Z,70.00
2018-06-15T22:42:25.521Z,70.40
2018-06-15T22:44:55.217Z,69.20
2018-06-15T22:47:24.117Z,70.40
2018-06-15T22:49:52.962Z,69.30
2018-06-15T22:52:22.720Z,69.30
2018-06-15T22:54:52.316Z,69.20
2018-06-15T22:57:21.894Z,69.50
2018-06-15T22:59:51.656Z,69.70
2018-06-15T23:02:20.539Z,70.10
2018-06-15T23:04:50.157Z,70.80
2018-06-15T23:07:19.597Z,70.90
2018-06-15T23:09:48.502Z,70.90
2018-06-15T23:12:17.884Z,71.40
2018-06-15T23:14:47.638Z,71.50
2018-06-15T23:17:16.840Z,72.10
2018-06-15T23:19:46.721Z,73.10
2018-06-15T23:22:15.372Z,72.60
2018-06-15T23:24:43.981Z,72.90
2018-06-15T23:27:13.134Z,73.00
2018-06-15T23:29:42.323Z,73.10
2018-06-15T23:32:11.272Z,73.20
2018-06-15T23:34:40.291Z,73.90
2018-06-15T23:37:09.239Z,74.00
2018-06-15T23:39:38.325Z,74.60
2018-06-15T23:42:07.842Z,74.70
2018-06-15T23:44:37.309Z,75.00
2018-06-15T23:47:06.357Z,75.10
2018-06-15T23:49:36.798Z,74.90
2018-06-15T23:52:08.550Z,75.00
2018-06-15T23:57:13.234Z,76.30
2018-06-15T23:59:42.616Z,76.70
